Time;durP1;ratioP1;P1;durP2;ratioP2;P2;SDS_P1;SDS_P2;PMS_P1;PMS_P2;Temp;Humidity;BMP_temperature;BMP_pressure;BME280_temperature;BME280_humidity;BME280_pressure;Samples;Min_cycle;Max_cycle;Signal;HPM_P1;HPM_P2
2022/03/08 00:00:40;;;;;;;53.80;31.17;;;;;;;;;;4910601;28;20427;-36
2022/03/08 00:03:07;;;;;;;53.73;31.60;;;;;;;;;;4916070;28;20526;-36
2022/03/08 00:05:33;;;;;;;54.90;30.97;;;;;;;;;;4913615;28;20443;-36
2022/03/08 00:07:59;;;;;;;57.47;31.67;;;;;;;;;;4914699;28;20434;-37
2022/03/08 00:10:26;;;;;;;54.43;30.20;;;;;;;;;;4912440;28;20582;-37
2022/03/08 00:12:53;;;;;;;52.67;30.13;;;;;;;;;;4910463;28;20742;-36
2022/03/08 00:15:24;;;;;;;56.53;31.03;;;;;;;;;;4913970;28;20442;-37
2022/03/08 00:17:51;;;;;;;51.83;29.60;;;;;;;;;;4912804;28;21253;-37
2022/03/08 00:20:17;;;;;;;50.07;29.30;;;;;;;;;;4913181;28;20419;-36
2022/03/08 00:22:44;;;;;;;56.23;30.80;;;;;;;;;;4910829;28;20441;-37
2022/03/08 00:25:11;;;;;;;52.17;30.17;;;;;;;;;;4913416;28;21007;-36
2022/03/08 00:27:38;;;;;;;49.57;28.27;;;;;;;;;;4911609;28;20646;-37
2022/03/08 00:30:06;;;;;;;50.10;29.33;;;;;;;;;;4908673;28;21431;-37
2022/03/08 00:32:32;;;;;;;56.53;31.40;;;;;;;;;;4912589;28;20513;-37
2022/03/08 00:34:58;;;;;;;54.17;29.50;;;;;;;;;;4913315;28;20423;-37
2022/03/08 00:37:24;;;;;;;49.23;28.63;;;;;;;;;;4912597;28;20442;-36
2022/03/08 00:39:50;;;;;;;49.40;28.47;;;;;;;;;;4913013;28;21084;-37
2022/03/08 00:42:16;;;;;;;51.20;30.57;;;;;;;;;;4910545;28;21357;-37
2022/03/08 00:44:43;;;;;;;53.80;29.90;;;;;;;;;;4912399;28;20420;-36
2022/03/08 00:47:09;;;;;;;54.57;30.57;;;;;;;;;;4904399;28;21977;-37
2022/03/08 00:49:36;;;;;;;50.17;28.83;;;;;;;;;;4911891;28;20523;-37
2022/03/08 00:52:02;;;;;;;50.97;29.83;;;;;;;;;;4911484;28;20458;-36
2022/03/08 00:54:28;;;;;;;51.13;29.20;;;;;;;;;;4910192;28;20431;-37
2022/03/08 00:56:55;;;;;;;53.87;29.47;;;;;;;;;;4909356;28;20427;-37
2022/03/08 00:59:21;;;;;;;51.67;29.40;;;;;;;;;;4911105;28;20502;-37
2022/03/08 01:01:47;;;;;;;50.27;29.57;;;;;;;;;;4909687;28;20505;-37
2022/03/08 01:04:13;;;;;;;52.40;30.80;;;;;;;;;;4912470;28;21055;-36
2022/03/08 01:06:40;;;;;;;53.33;29.50;;;;;;;;;;4912638;28;20509;-37
2022/03/08 01:09:07;;;;;;;52.30;29.13;;;;;;;;;;4912731;28;21341;-36
2022/03/08 01:11:36;;;;;;;51.07;30.57;;;;;;;;;;4912228;28;20471;-37
2022/03/08 01:14:02;;;;;;;54.73;29.87;;;;;;;;;;4910686;28;20525;-37
2022/03/08 01:16:28;;;;;;;48.93;29.33;;;;;;;;;;4908335;28;22638;-37
2022/03/08 01:18:54;;;;;;;53.47;29.80;;;;;;;;;;4911053;28;20918;-37
2022/03/08 01:21:20;;;;;;;54.90;31.20;;;;;;;;;;4910687;28;21379;-36
2022/03/08 01:23:46;;;;;;;55.63;32.13;;;;;;;;;;4914207;28;20525;-37
2022/03/08 01:26:14;;;;;;;54.17;30.03;;;;;;;;;;4907952;28;20434;-37
2022/03/08 01:28:40;;;;;;;56.23;33.97;;;;;;;;;;4908000;28;20535;-37
2022/03/08 01:31:06;;;;;;;60.63;34.43;;;;;;;;;;4911473;28;20454;-36
2022/03/08 01:33:33;;;;;;;62.07;34.10;;;;;;;;;;4907917;28;21191;-37
2022/03/08 01:35:59;;;;;;;63.10;34.03;;;;;;;;;;4912771;28;21352;-37
2022/03/08 01:38:25;;;;;;;54.37;32.57;;;;;;;;;;4907951;28;20437;-37
2022/03/08 01:40:52;;;;;;;63.10;34.23;;;;;;;;;;4915552;28;20427;-37
2022/03/08 01:43:18;;;;;;;61.67;34.57;;;;;;;;;;4913210;28;20534;-36
2022/03/08 01:45:44;;;;;;;62.87;33.50;;;;;;;;;;4909997;28;20438;-37
2022/03/08 01:48:10;;;;;;;59.83;32.17;;;;;;;;;;4909096;28;20434;-37
2022/03/08 01:50:37;;;;;;;57.50;32.90;;;;;;;;;;4914070;28;21247;-37
2022/03/08 01:53:03;;;;;;;56.97;33.13;;;;;;;;;;4908034;28;21261;-36
2022/03/08 01:55:30;;;;;;;59.67;34.27;;;;;;;;;;4910954;28;21450;-36
2022/03/08 01:57:56;;;;;;;58.40;33.07;;;;;;;;;;4906936;28;20510;-37
2022/03/08 02:00:24;;;;;;;59.07;32.67;;;;;;;;;;4911006;28;21355;-37
2022/03/08 02:02:50;;;;;;;57.83;31.67;;;;;;;;;;4910915;28;20431;-37
2022/03/08 02:05:17;;;;;;;61.63;34.50;;;;;;;;;;4912639;28;20441;-37
2022/03/08 02:07:43;;;;;;;62.77;32.60;;;;;;;;;;4908449;28;20458;-37
2022/03/08 02:10:09;;;;;;;55.93;32.13;;;;;;;;;;4909446;28;20466;-37
2022/03/08 02:12:35;;;;;;;60.70;33.63;;;;;;;;;;4912309;28;22300;-37
2022/03/08 02:15:11;;;;;;;63.63;34.57;;;;;;;;;;4911275;28;21637;-37
2022/03/08 02:17:37;;;;;;;60.97;33.63;;;;;;;;;;4912768;28;20426;-36
2022/03/08 02:20:03;;;;;;;63.17;33.57;;;;;;;;;;4912715;28;20454;-37
2022/03/08 02:22:29;;;;;;;61.77;33.57;;;;;;;;;;4909073;28;21951;-37
2022/03/08 02:24:55;;;;;;;60.57;33.00;;;;;;;;;;4908736;28;21687;-37
2022/03/08 02:27:21;;;;;;;56.60;32.40;;;;;;;;;;4910479;28;21611;-37
2022/03/08 02:29:49;;;;;;;62.07;34.20;;;;;;;;;;4916743;28;20415;-37
2022/03/08 02:32:16;;;;;;;58.83;33.93;;;;;;;;;;4911771;28;21024;-37
2022/03/08 02:34:42;;;;;;;62.53;34.17;;;;;;;;;;4911545;28;20442;-37
2022/03/08 02:37:09;;;;;;;57.70;32.17;;;;;;;;;;4913388;28;20427;-36
2022/03/08 02:39:35;;;;;;;60.20;33.90;;;;;;;;;;4913431;28;20505;-37
2022/03/08 02:42:01;;;;;;;57.13;33.13;;;;;;;;;;4913387;28;21117;-37
2022/03/08 02:44:27;;;;;;;56.90;32.57;;;;;;;;;;4918072;28;20422;-37
2022/03/08 02:46:54;;;;;;;54.17;30.37;;;;;;;;;;4914553;28;20427;-37
2022/03/08 02:49:20;;;;;;;54.53;31.00;;;;;;;;;;4911163;28;20422;-37
2022/03/08 02:51:46;;;;;;;55.10;31.03;;;;;;;;;;4910255;28;20494;-37
2022/03/08 02:54:12;;;;;;;55.00;31.07;;;;;;;;;;4913747;28;20431;-37
2022/03/08 02:56:39;;;;;;;53.17;31.10;;;;;;;;;;4912142;28;21126;-37
2022/03/08 02:59:05;;;;;;;57.10;32.57;;;;;;;;;;4913481;28;20419;-37
2022/03/08 03:01:31;;;;;;;57.50;31.83;;;;;;;;;;4910736;28;20470;-37
2022/03/08 03:03:57;;;;;;;53.90;30.37;;;;;;;;;;4910346;28;20820;-37
2022/03/08 03:06:24;;;;;;;48.83;29.80;;;;;;;;;;4909870;28;20433;-38
2022/03/08 03:08:50;;;;;;;53.10;30.07;;;;;;;;;;4915306;28;20455;-37
2022/03/08 03:11:16;;;;;;;46.70;28.37;;;;;;;;;;4915292;28;20481;-38
2022/03/08 03:13:42;;;;;;;54.10;30.63;;;;;;;;;;4913153;28;20446;-38
2022/03/08 03:16:08;;;;;;;49.67;29.87;;;;;;;;;;4906259;28;21013;-38
2022/03/08 03:18:34;;;;;;;51.40;29.43;;;;;;;;;;4910630;28;20614;-37
2022/03/08 03:21:00;;;;;;;48.87;27.57;;;;;;;;;;4908901;28;20470;-37
2022/03/08 03:23:26;;;;;;;48.77;28.83;;;;;;;;;;4913671;28;20438;-37
2022/03/08 03:25:52;;;;;;;47.73;29.00;;;;;;;;;;4910065;28;20430;-37
2022/03/08 03:28:18;;;;;;;49.57;29.97;;;;;;;;;;4907960;28;20447;-37
2022/03/08 03:30:44;;;;;;;49.57;29.50;;;;;;;;;;4909234;28;20450;-38
2022/03/08 03:33:10;;;;;;;50.13;29.80;;;;;;;;;;4913409;28;21400;-37
2022/03/08 03:35:36;;;;;;;53.53;29.97;;;;;;;;;;4910934;28;20465;-37
2022/03/08 03:38:02;;;;;;;50.90;29.93;;;;;;;;;;4912385;28;20810;-38
2022/03/08 03:40:29;;;;;;;53.67;29.40;;;;;;;;;;4913603;28;20798;-37
2022/03/08 03:42:55;;;;;;;53.33;30.63;;;;;;;;;;4909513;28;20777;-37
2022/03/08 03:45:21;;;;;;;48.40;28.30;;;;;;;;;;4909945;28;20459;-37
2022/03/08 03:47:47;;;;;;;54.67;30.20;;;;;;;;;;4913993;28;21029;-37
2022/03/08 03:50:13;;;;;;;54.50;29.83;;;;;;;;;;4911820;28;20981;-37
2022/03/08 03:52:39;;;;;;;52.40;30.17;;;;;;;;;;4909309;28;20424;-37
2022/03/08 03:55:06;;;;;;;54.33;30.67;;;;;;;;;;4912690;28;20513;-37
2022/03/08 03:57:32;;;;;;;50.20;29.73;;;;;;;;;;4914632;28;20430;-37
2022/03/08 03:59:58;;;;;;;53.40;30.07;;;;;;;;;;4910384;28;20427;-37
2022/03/08 04:02:24;;;;;;;52.43;29.10;;;;;;;;;;4911319;28;20800;-37
2022/03/08 04:04:50;;;;;;;54.00;29.70;;;;;;;;;;4911465;28;21158;-37
2022/03/08 04:07:16;;;;;;;52.63;30.23;;;;;;;;;;4914269;28;20557;-37
2022/03/08 04:09:42;;;;;;;52.97;29.43;;;;;;;;;;4914160;28;20537;-37
2022/03/08 04:12:08;;;;;;;53.30;29.70;;;;;;;;;;4907960;28;20824;-37
2022/03/08 04:14:34;;;;;;;51.47;29.90;;;;;;;;;;4914788;28;20443;-37
2022/03/08 04:17:02;;;;;;;49.60;28.27;;;;;;;;;;4914839;28;20422;-37
2022/03/08 04:19:28;;;;;;;51.07;29.67;;;;;;;;;;4910849;28;21012;-37
2022/03/08 04:21:54;;;;;;;54.20;30.17;;;;;;;;;;4912025;28;20528;-37
2022/03/08 04:24:20;;;;;;;49.17;27.47;;;;;;;;;;4910126;28;21013;-37
2022/03/08 04:26:46;;;;;;;48.37;28.17;;;;;;;;;;4912498;28;21637;-37
2022/03/08 04:29:12;;;;;;;48.20;27.33;;;;;;;;;;4913130;28;20431;-37
2022/03/08 04:31:39;;;;;;;49.57;28.83;;;;;;;;;;4911390;28;20896;-37
2022/03/08 04:34:05;;;;;;;49.60;28.57;;;;;;;;;;4905820;28;20431;-37
2022/03/08 04:36:31;;;;;;;47.97;26.93;;;;;;;;;;4910026;28;20546;-37
2022/03/08 04:38:57;;;;;;;49.27;27.90;;;;;;;;;;4910306;28;20596;-37
2022/03/08 04:41:23;;;;;;;49.70;28.23;;;;;;;;;;4907419;28;20427;-37
2022/03/08 04:43:49;;;;;;;46.23;26.90;;;;;;;;;;4910836;28;20800;-37
2022/03/08 04:46:15;;;;;;;47.20;27.53;;;;;;;;;;4911034;28;20660;-37
2022/03/08 04:48:42;;;;;;;51.23;28.90;;;;;;;;;;4906708;28;20657;-37
2022/03/08 04:51:08;;;;;;;51.87;28.03;;;;;;;;;;4905975;28;20451;-37
2022/03/08 04:53:34;;;;;;;55.20;28.70;;;;;;;;;;4910336;28;21045;-37
2022/03/08 04:56:00;;;;;;;60.40;31.80;;;;;;;;;;4910195;28;20422;-37
2022/03/08 04:58:26;;;;;;;56.37;32.63;;;;;;;;;;4911067;28;20553;-37
2022/03/08 05:00:52;;;;;;;55.40;32.33;;;;;;;;;;4906700;28;20729;-37
2022/03/08 05:03:18;;;;;;;57.23;32.37;;;;;;;;;;4908406;28;21086;-37
2022/03/08 05:05:44;;;;;;;61.57;32.13;;;;;;;;;;4909965;28;20534;-37
2022/03/08 05:08:10;;;;;;;54.20;30.80;;;;;;;;;;4907240;28;21594;-38
2022/03/08 05:10:36;;;;;;;52.60;31.27;;;;;;;;;;4908348;28;20742;-37
2022/03/08 05:13:03;;;;;;;57.60;31.13;;;;;;;;;;4909179;28;20541;-37
2022/03/08 05:15:30;;;;;;;60.10;31.07;;;;;;;;;;4906423;28;21696;-37
2022/03/08 05:17:56;;;;;;;60.87;32.93;;;;;;;;;;4911310;28;21065;-37
2022/03/08 05:20:22;;;;;;;60.30;31.80;;;;;;;;;;4912023;28;20665;-37
2022/03/08 05:22:48;;;;;;;55.23;31.67;;;;;;;;;;4907444;28;20464;-37
2022/03/08 05:25:14;;;;;;;56.60;32.00;;;;;;;;;;4906173;28;20505;-37
2022/03/08 05:27:40;;;;;;;60.83;32.07;;;;;;;;;;4908536;28;21379;-37
2022/03/08 05:30:07;;;;;;;64.90;32.73;;;;;;;;;;4911075;28;20598;-37
2022/03/08 05:32:33;;;;;;;63.40;34.43;;;;;;;;;;4908674;28;20948;-38
2022/03/08 05:34:59;;;;;;;62.97;33.70;;;;;;;;;;4908869;28;20923;-37
2022/03/08 05:37:25;;;;;;;61.33;33.50;;;;;;;;;;4909758;28;20538;-37
2022/03/08 05:39:51;;;;;;;61.00;33.20;;;;;;;;;;4909601;28;20430;-37
2022/03/08 05:42:17;;;;;;;65.90;32.93;;;;;;;;;;4910579;28;20462;-37
2022/03/08 05:44:43;;;;;;;62.70;32.90;;;;;;;;;;4909268;28;20946;-36
2022/03/08 05:47:09;;;;;;;60.83;32.20;;;;;;;;;;4908902;28;20431;-37
2022/03/08 05:49:36;;;;;;;58.67;31.87;;;;;;;;;;4909624;28;20981;-38
2022/03/08 05:52:02;;;;;;;59.17;32.33;;;;;;;;;;4909786;28;20483;-37
2022/03/08 05:54:28;;;;;;;60.03;32.37;;;;;;;;;;4906479;28;20870;-37
2022/03/08 05:56:54;;;;;;;59.03;31.13;;;;;;;;;;4907276;28;20426;-38
2022/03/08 05:59:20;;;;;;;57.13;32.60;;;;;;;;;;4909834;28;20789;-37
2022/03/08 06:01:46;;;;;;;61.00;31.97;;;;;;;;;;4907342;28;20447;-37
2022/03/08 06:04:12;;;;;;;60.97;32.27;;;;;;;;;;4907815;28;20443;-38
2022/03/08 06:06:39;;;;;;;59.83;31.97;;;;;;;;;;4909526;28;21095;-37
2022/03/08 06:09:05;;;;;;;61.57;32.70;;;;;;;;;;4909356;28;20434;-37
2022/03/08 06:11:31;;;;;;;62.00;32.73;;;;;;;;;;4907764;28;20513;-38
2022/03/08 06:13:59;;;;;;;58.60;30.50;;;;;;;;;;4908837;28;20569;-37
2022/03/08 06:16:25;;;;;;;61.37;33.47;;;;;;;;;;4905689;28;20867;-39
2022/03/08 06:18:55;;;;;;;62.17;32.97;;;;;;;;;;4902927;28;20435;-37
2022/03/08 06:21:21;;;;;;;60.60;32.43;;;;;;;;;;4910307;28;20442;-38
2022/03/08 06:23:48;;;;;;;55.93;30.80;;;;;;;;;;4908880;28;20830;-37
2022/03/08 06:26:14;;;;;;;59.93;32.63;;;;;;;;;;4903543;28;21208;-38
2022/03/08 06:28:41;;;;;;;60.93;31.67;;;;;;;;;;4903740;28;20439;-37
2022/03/08 06:31:07;;;;;;;61.23;32.87;;;;;;;;;;4907052;28;20847;-38
2022/03/08 06:33:33;;;;;;;58.03;31.93;;;;;;;;;;4904569;28;20829;-37
2022/03/08 06:35:59;;;;;;;57.80;31.77;;;;;;;;;;4904410;28;21022;-37
2022/03/08 06:38:26;;;;;;;64.13;34.30;;;;;;;;;;4920997;28;20442;-37
2022/03/08 06:40:52;;;;;;;66.93;34.33;;;;;;;;;;4904705;28;21233;-37
2022/03/08 06:43:19;;;;;;;69.23;34.47;;;;;;;;;;4910100;28;20481;-37
2022/03/08 06:45:45;;;;;;;68.97;35.00;;;;;;;;;;4902755;28;20462;-37
2022/03/08 06:48:12;;;;;;;61.67;31.40;;;;;;;;;;4901041;28;21006;-36
2022/03/08 06:50:39;;;;;;;63.87;34.67;;;;;;;;;;4909654;28;20963;-37
2022/03/08 06:53:06;;;;;;;65.83;33.33;;;;;;;;;;4905811;28;20934;-37
2022/03/08 06:55:32;;;;;;;62.97;35.17;;;;;;;;;;4909355;28;20808;-37
2022/03/08 06:57:58;;;;;;;59.87;32.70;;;;;;;;;;4907791;28;20415;-38
2022/03/08 07:00:24;;;;;;;66.70;34.57;;;;;;;;;;4909186;28;20892;-36
2022/03/08 07:02:51;;;;;;;66.17;33.03;;;;;;;;;;4906756;28;20765;-37
2022/03/08 07:05:17;;;;;;;60.70;34.13;;;;;;;;;;4909360;28;20791;-38
2022/03/08 07:07:43;;;;;;;63.73;34.80;;;;;;;;;;4914648;28;20427;-37
2022/03/08 07:10:10;;;;;;;71.47;37.33;;;;;;;;;;4910907;28;20758;-37
2022/03/08 07:12:36;;;;;;;73.10;36.60;;;;;;;;;;4909167;28;20434;-37
2022/03/08 07:15:03;;;;;;;70.33;35.43;;;;;;;;;;4913027;28;20461;-37
2022/03/08 07:17:29;;;;;;;69.27;33.93;;;;;;;;;;4914776;28;21097;-38
2022/03/08 07:19:56;;;;;;;63.93;32.07;;;;;;;;;;4912202;28;20419;-37
2022/03/08 07:22:22;;;;;;;70.43;34.37;;;;;;;;;;4911053;28;20458;-37
2022/03/08 07:24:49;;;;;;;66.17;33.47;;;;;;;;;;4912375;28;20566;-38
2022/03/08 07:27:15;;;;;;;68.43;36.03;;;;;;;;;;4912511;28;20458;-38
2022/03/08 07:29:43;;;;;;;69.67;34.33;;;;;;;;;;4909888;28;20896;-37
2022/03/08 07:32:10;;;;;;;69.60;34.53;;;;;;;;;;4914495;28;20459;-37
2022/03/08 07:34:36;;;;;;;65.47;32.93;;;;;;;;;;4910693;28;21154;-38
2022/03/08 07:37:03;;;;;;;60.53;32.10;;;;;;;;;;4927857;28;20430;-38
2022/03/08 07:39:29;;;;;;;64.50;31.70;;;;;;;;;;4909476;28;21290;-37
2022/03/08 07:41:56;;;;;;;58.27;29.87;;;;;;;;;;4912709;28;20930;-37
2022/03/08 07:44:22;;;;;;;59.80;30.80;;;;;;;;;;4899307;28;20423;-37
2022/03/08 07:46:49;;;;;;;55.07;28.53;;;;;;;;;;4910145;28;20415;-38
2022/03/08 07:49:15;;;;;;;55.83;28.90;;;;;;;;;;4909086;28;20654;-38
2022/03/08 07:51:42;;;;;;;56.77;28.97;;;;;;;;;;4911034;28;20522;-38
2022/03/08 07:54:08;;;;;;;59.57;31.90;;;;;;;;;;4913582;28;20832;-38
2022/03/08 07:56:35;;;;;;;56.27;29.53;;;;;;;;;;4913117;28;20578;-38
2022/03/08 07:59:01;;;;;;;57.53;29.70;;;;;;;;;;4909513;28;20423;-37
2022/03/08 08:01:28;;;;;;;54.63;29.77;;;;;;;;;;4912754;28;21049;-38
2022/03/08 08:03:54;;;;;;;52.77;28.83;;;;;;;;;;4912215;28;20434;-38
2022/03/08 08:06:21;;;;;;;59.37;30.23;;;;;;;;;;4913715;28;20427;-39
2022/03/08 08:08:48;;;;;;;57.87;29.07;;;;;;;;;;4914838;28;20428;-38
2022/03/08 08:11:14;;;;;;;55.00;30.03;;;;;;;;;;4913541;28;20462;-38
2022/03/08 08:13:41;;;;;;;53.73;28.97;;;;;;;;;;4917523;28;20439;-39
2022/03/08 08:16:08;;;;;;;48.77;28.07;;;;;;;;;;4911265;28;20995;-40
2022/03/08 08:18:34;;;;;;;57.60;29.60;;;;;;;;;;4911020;28;20952;-38
2022/03/08 08:21:01;;;;;;;52.00;27.43;;;;;;;;;;4908798;28;20435;-38
2022/03/08 08:23:27;;;;;;;45.27;25.80;;;;;;;;;;4913587;28;20423;-39
2022/03/08 08:25:53;;;;;;;48.63;26.50;;;;;;;;;;4915172;28;20857;-38
2022/03/08 08:28:19;;;;;;;48.47;25.10;;;;;;;;;;4909617;28;20454;-38
2022/03/08 08:30:45;;;;;;;43.03;25.37;;;;;;;;;;4912007;28;20457;-38
2022/03/08 08:33:11;;;;;;;46.70;25.60;;;;;;;;;;4912957;28;20473;-38
2022/03/08 08:35:38;;;;;;;44.57;25.13;;;;;;;;;;4912307;28;20521;-40
2022/03/08 08:38:05;;;;;;;45.73;26.47;;;;;;;;;;4911878;28;20901;-38
2022/03/08 08:40:34;;;;;;;42.63;25.17;;;;;;;;;;4908839;28;20513;-38
2022/03/08 08:43:00;;;;;;;44.77;25.33;;;;;;;;;;4906573;28;20602;-40
2022/03/08 08:45:26;;;;;;;41.30;24.13;;;;;;;;;;4909944;28;20846;-38
2022/03/08 08:47:52;;;;;;;43.30;24.30;;;;;;;;;;4912304;28;20903;-38
2022/03/08 08:50:18;;;;;;;47.13;25.97;;;;;;;;;;4912577;28;20454;-39
2022/03/08 08:52:45;;;;;;;42.40;24.33;;;;;;;;;;4912852;28;20431;-40
2022/03/08 08:55:11;;;;;;;38.93;24.00;;;;;;;;;;4907477;28;20851;-38
2022/03/08 08:57:38;;;;;;;47.07;24.80;;;;;;;;;;4925599;28;20427;-39
2022/03/08 09:00:05;;;;;;;41.07;23.40;;;;;;;;;;4910661;28;21031;-38
2022/03/08 09:02:31;;;;;;;30.43;18.80;;;;;;;;;;4914124;28;20867;-39
2022/03/08 09:04:57;;;;;;;28.63;17.60;;;;;;;;;;4913125;28;20529;-38
2022/03/08 09:07:23;;;;;;;21.20;14.83;;;;;;;;;;4910012;28;20867;-39
2022/03/08 09:09:49;;;;;;;28.43;17.23;;;;;;;;;;4911694;28;20427;-39
2022/03/08 09:12:15;;;;;;;26.67;14.77;;;;;;;;;;4913735;28;20546;-40
2022/03/08 09:14:42;;;;;;;23.70;14.47;;;;;;;;;;4915080;28;20907;-38
2022/03/08 09:17:08;;;;;;;19.93;13.20;;;;;;;;;;4912162;28;20574;-39
2022/03/08 09:19:35;;;;;;;20.80;11.87;;;;;;;;;;4912599;28;20431;-39
2022/03/08 09:22:01;;;;;;;15.37;9.73;;;;;;;;;;4915285;28;20439;-38
2022/03/08 09:24:27;;;;;;;13.20;8.50;;;;;;;;;;4909898;28;20427;-39
2022/03/08 09:26:53;;;;;;;12.47;8.43;;;;;;;;;;4908517;28;20966;-38
2022/03/08 09:29:19;;;;;;;14.17;8.20;;;;;;;;;;4907636;28;20991;-39
2022/03/08 09:31:45;;;;;;;13.70;7.47;;;;;;;;;;4910806;28;20210;-38
2022/03/08 09:34:11;;;;;;;11.63;7.43;;;;;;;;;;4912856;28;20482;-39
2022/03/08 09:36:38;;;;;;;11.87;8.20;;;;;;;;;;4909320;28;20422;-38
2022/03/08 09:39:05;;;;;;;12.93;8.00;;;;;;;;;;4910916;28;20661;-38
2022/03/08 09:41:31;;;;;;;14.13;8.63;;;;;;;;;;4910746;28;20458;-38
2022/03/08 09:43:59;;;;;;;16.00;9.90;;;;;;;;;;4912931;28;20420;-37
2022/03/08 09:46:25;;;;;;;14.27;9.50;;;;;;;;;;4911482;28;20473;-40
2022/03/08 09:48:51;;;;;;;14.50;8.83;;;;;;;;;;4912611;28;20441;-38
2022/03/08 09:51:17;;;;;;;12.70;9.00;;;;;;;;;;4912653;28;20490;-40
2022/03/08 09:53:44;;;;;;;12.97;7.93;;;;;;;;;;4906634;28;20672;-38
2022/03/08 09:56:10;;;;;;;14.07;8.80;;;;;;;;;;4908716;28;20187;-38
2022/03/08 09:58:37;;;;;;;14.17;9.30;;;;;;;;;;4908974;28;20183;-38
2022/03/08 10:01:04;;;;;;;13.50;7.73;;;;;;;;;;4912524;28;20258;-38
2022/03/08 10:03:31;;;;;;;11.67;7.90;;;;;;;;;;4916646;28;20711;-38
2022/03/08 10:05:57;;;;;;;12.70;7.70;;;;;;;;;;4911611;28;20418;-38
2022/03/08 10:08:24;;;;;;;12.40;7.43;;;;;;;;;;4911284;28;20798;-38
2022/03/08 10:10:50;;;;;;;13.90;8.13;;;;;;;;;;4910485;28;20441;-38
2022/03/08 10:13:18;;;;;;;12.17;7.73;;;;;;;;;;4913019;28;20540;-38
2022/03/08 10:15:44;;;;;;;13.43;7.40;;;;;;;;;;4912454;28;20922;-39
2022/03/08 10:18:10;;;;;;;9.70;6.90;;;;;;;;;;4912293;28;20419;-38
2022/03/08 10:20:37;;;;;;;11.03;6.60;;;;;;;;;;4911781;28;20421;-38
2022/03/08 10:23:09;;;;;;;10.60;5.80;;;;;;;;;;4912020;28;20506;-38
2022/03/08 10:25:35;;;;;;;8.40;6.00;;;;;;;;;;4913193;28;20423;-37
2022/03/08 10:28:02;;;;;;;10.37;6.20;;;;;;;;;;4913821;28;20183;-37
2022/03/08 10:30:49;;;;;;;12.20;5.90;;;;;;;;;;4909531;28;20207;-37
2022/03/08 10:33:19;;;;;;;12.57;5.60;;;;;;;;;;4909851;28;21318;-37
2022/03/08 10:35:46;;;;;;;17.70;5.57;;;;;;;;;;4911956;28;20259;-37
2022/03/08 10:38:12;;;;;;;10.63;5.90;;;;;;;;;;4912638;28;20207;-37
2022/03/08 10:40:39;;;;;;;8.73;6.30;;;;;;;;;;4912686;28;20863;-38
2022/03/08 10:43:07;;;;;;;8.60;5.90;;;;;;;;;;4908306;28;21225;-38
2022/03/08 10:45:34;;;;;;;11.37;6.80;;;;;;;;;;4908067;28;20194;-37
2022/03/08 10:48:04;;;;;;;13.40;6.27;;;;;;;;;;4911053;28;20212;-37
2022/03/08 10:50:31;;;;;;;13.37;7.40;;;;;;;;;;4913057;28;20447;-37
2022/03/08 10:52:58;;;;;;;15.03;7.00;;;;;;;;;;4913930;28;20975;-38
2022/03/08 10:55:24;;;;;;;11.40;7.07;;;;;;;;;;4910696;28;20184;-40
2022/03/08 10:57:55;;;;;;;12.77;7.70;;;;;;;;;;4914462;28;20210;-38
2022/03/08 11:00:26;;;;;;;13.27;8.07;;;;;;;;;;4915566;28;20180;-38
2022/03/08 11:02:56;;;;;;;15.17;7.53;;;;;;;;;;4914633;28;20259;-38
2022/03/08 11:05:24;;;;;;;11.80;7.80;;;;;;;;;;4912258;28;21126;-38
2022/03/08 11:07:50;;;;;;;12.43;7.90;;;;;;;;;;4914728;28;20313;-37
2022/03/08 11:10:17;;;;;;;15.80;8.37;;;;;;;;;;4915399;28;20719;-37
2022/03/08 11:12:43;;;;;;;14.00;7.67;;;;;;;;;;4913862;28;20183;-37
2022/03/08 11:15:10;;;;;;;11.73;7.80;;;;;;;;;;4914874;28;20183;-37
2022/03/08 11:17:39;;;;;;;15.70;8.43;;;;;;;;;;4913635;28;20176;-37
2022/03/08 11:20:07;;;;;;;14.03;8.00;;;;;;;;;;4917219;28;20171;-38
2022/03/08 11:22:34;;;;;;;13.40;8.63;;;;;;;;;;4917213;28;20640;-37
2022/03/08 11:25:00;;;;;;;13.50;8.70;;;;;;;;;;4911499;28;20270;-37
2022/03/08 11:27:27;;;;;;;12.53;8.10;;;;;;;;;;4915239;28;20723;-37
2022/03/08 11:29:53;;;;;;;14.33;8.97;;;;;;;;;;4915832;28;20462;-36
2022/03/08 11:32:26;;;;;;;13.13;8.20;;;;;;;;;;4916334;28;20350;-37
2022/03/08 11:34:55;;;;;;;16.07;9.10;;;;;;;;;;4913951;28;20183;-37
2022/03/08 11:37:23;;;;;;;16.90;9.10;;;;;;;;;;4909907;28;20633;-36
2022/03/08 11:40:08;;;;;;;15.27;8.73;;;;;;;;;;4913394;28;20184;-37
2022/03/08 11:42:37;;;;;;;13.33;8.93;;;;;;;;;;4914628;28;20558;-36
2022/03/08 11:45:06;;;;;;;13.03;8.93;;;;;;;;;;4915223;28;20191;-36
2022/03/08 11:47:39;;;;;;;14.53;9.27;;;;;;;;;;4912437;28;20194;-37
2022/03/08 11:50:06;;;;;;;14.13;9.83;;;;;;;;;;4915721;28;20463;-37
2022/03/08 11:52:35;;;;;;;14.70;9.13;;;;;;;;;;4916317;28;20630;-36
2022/03/08 11:55:08;;;;;;;14.80;9.87;;;;;;;;;;4913655;28;20719;-37
2022/03/08 11:58:01;;;;;;;18.73;9.30;;;;;;;;;;4910701;28;20229;-37
2022/03/08 12:00:35;;;;;;;14.77;9.30;;;;;;;;;;4890692;28;20194;-37
2022/03/08 12:03:08;;;;;;;16.10;9.60;;;;;;;;;;4916245;28;20899;-37
2022/03/08 12:05:44;;;;;;;13.30;9.13;;;;;;;;;;4912938;28;20766;-37
2022/03/08 12:08:23;;;;;;;15.20;9.53;;;;;;;;;;4913685;28;20575;-37
2022/03/08 12:10:49;;;;;;;16.90;9.77;;;;;;;;;;4909550;28;20648;-37
2022/03/08 12:13:16;;;;;;;16.80;8.70;;;;;;;;;;4911009;28;20495;-37
2022/03/08 12:16:01;;;;;;;13.30;8.43;;;;;;;;;;4908262;28;20191;-37
2022/03/08 12:18:34;;;;;;;16.73;9.70;;;;;;;;;;4913571;28;20601;-37
2022/03/08 12:21:22;;;;;;;17.13;8.80;;;;;;;;;;4913076;28;20502;-36
2022/03/08 12:23:55;;;;;;;15.43;9.77;;;;;;;;;;4909724;28;20179;-37
2022/03/08 12:26:30;;;;;;;15.63;9.17;;;;;;;;;;4910278;28;20705;-37
2022/03/08 12:29:07;;;;;;;13.23;9.70;;;;;;;;;;4911529;28;20186;-36
2022/03/08 12:31:34;;;;;;;14.07;9.10;;;;;;;;;;4913699;28;20229;-36
2022/03/08 12:34:07;;;;;;;13.87;9.23;;;;;;;;;;4913190;28;20320;-36
2022/03/08 12:36:36;;;;;;;11.13;8.17;;;;;;;;;;4911613;28;20202;-37
2022/03/08 12:39:04;;;;;;;12.53;8.90;;;;;;;;;;4914798;28;20183;-36
2022/03/08 12:41:30;;;;;;;12.33;8.70;;;;;;;;;;4911792;28;20838;-37
2022/03/08 12:44:00;;;;;;;10.93;8.13;;;;;;;;;;4909403;28;20210;-37
2022/03/08 12:46:27;;;;;;;11.83;7.83;;;;;;;;;;4911490;28;20176;-36
2022/03/08 12:48:53;;;;;;;11.13;8.83;;;;;;;;;;4914332;28;20251;-37
2022/03/08 12:51:21;;;;;;;10.93;7.87;;;;;;;;;;4913916;28;20199;-37
2022/03/08 12:53:50;;;;;;;11.33;8.00;;;;;;;;;;4912154;28;20210;-37
2022/03/08 12:56:18;;;;;;;12.00;8.60;;;;;;;;;;4907085;28;20403;-36
2022/03/08 12:58:44;;;;;;;15.50;9.47;;;;;;;;;;4916023;28;21061;-37
2022/03/08 13:01:11;;;;;;;13.67;8.60;;;;;;;;;;4916273;28;20296;-37
2022/03/08 13:03:41;;;;;;;13.93;9.10;;;;;;;;;;4912733;28;20180;-37
2022/03/08 13:06:08;;;;;;;14.83;9.00;;;;;;;;;;4907617;28;20183;-37
2022/03/08 13:08:36;;;;;;;10.73;8.00;;;;;;;;;;4908229;28;20540;-37
2022/03/08 13:11:03;;;;;;;12.93;8.80;;;;;;;;;;4910206;28;20188;-37
2022/03/08 13:13:30;;;;;;;11.17;8.27;;;;;;;;;;4906795;28;20188;-37
2022/03/08 13:15:56;;;;;;;13.17;8.23;;;;;;;;;;4906165;28;20171;-37
2022/03/08 13:18:23;;;;;;;14.40;9.27;;;;;;;;;;4921711;28;20254;-37
2022/03/08 13:20:55;;;;;;;11.90;8.37;;;;;;;;;;4912579;28;20184;-37
2022/03/08 13:23:22;;;;;;;13.40;9.40;;;;;;;;;;4926102;28;20179;-37
2022/03/08 13:25:50;;;;;;;16.43;9.13;;;;;;;;;;4908451;28;20581;-36
2022/03/08 13:28:20;;;;;;;12.80;9.07;;;;;;;;;;4911820;28;20208;-38
2022/03/08 13:30:46;;;;;;;14.70;10.20;;;;;;;;;;4908965;28;20195;-37
2022/03/08 13:33:16;;;;;;;15.00;9.47;;;;;;;;;;4913450;28;20179;-37
2022/03/08 13:35:50;;;;;;;13.47;9.77;;;;;;;;;;4909566;28;20208;-37
2022/03/08 13:38:20;;;;;;;13.87;8.70;;;;;;;;;;4908043;28;20283;-37
2022/03/08 13:40:47;;;;;;;14.40;9.40;;;;;;;;;;4905803;28;21043;-37
2022/03/08 13:43:15;;;;;;;17.30;11.33;;;;;;;;;;4910402;28;20465;-37
2022/03/08 13:45:41;;;;;;;12.00;8.93;;;;;;;;;;4906030;28;20187;-37
2022/03/08 13:48:07;;;;;;;12.07;8.80;;;;;;;;;;4910110;28;20184;-37
2022/03/08 13:50:34;;;;;;;15.30;8.50;;;;;;;;;;4909069;28;20191;-37
2022/03/08 13:53:11;;;;;;;12.33;8.63;;;;;;;;;;4907771;28;21074;-37
2022/03/08 13:55:37;;;;;;;11.27;7.83;;;;;;;;;;4908878;28;20603;-37
2022/03/08 13:58:14;;;;;;;10.40;7.70;;;;;;;;;;4914974;28;20203;-37
2022/03/08 14:00:40;;;;;;;11.17;8.20;;;;;;;;;;4910264;28;20269;-37
2022/03/08 14:03:07;;;;;;;12.40;8.43;;;;;;;;;;4907426;28;20596;-37
2022/03/08 14:05:52;;;;;;;14.27;8.10;;;;;;;;;;4910570;28;20353;-36
2022/03/08 14:08:34;;;;;;;10.93;7.93;;;;;;;;;;4912352;28;20175;-36
2022/03/08 14:11:02;;;;;;;13.20;8.17;;;;;;;;;;4907469;28;20234;-36
2022/03/08 14:13:29;;;;;;;14.50;8.83;;;;;;;;;;4908161;28;20202;-36
2022/03/08 14:16:07;;;;;;;12.60;8.93;;;;;;;;;;4907182;28;20184;-36
2022/03/08 14:18:34;;;;;;;14.30;8.13;;;;;;;;;;4909560;28;20384;-36
2022/03/08 14:21:02;;;;;;;11.43;8.07;;;;;;;;;;4910931;28;21226;-36